createdAt,value
2019-02-20T00:00:14.110Z,1020.17
2019-02-20T00:00:54.720Z,1020.16
2019-02-20T00:01:35.323Z,1020.18
2019-02-20T00:02:15.909Z,1020.14
2019-02-20T00:02:56.502Z,1020.14
2019-02-20T00:03:37.106Z,1020.19
2019-02-20T00:04:17.697Z,1020.18
2019-02-20T00:04:58.318Z,1020.18
2019-02-20T00:05:38.935Z,1020.16
2019-02-20T00:06:19.531Z,1020.18
2019-02-20T00:07:00.119Z,1020.19
2019-02-20T00:07:40.751Z,1020.19
2019-02-20T00:08:21.351Z,1020.18
2019-02-20T00:09:01.944Z,1020.19
2019-02-20T00:09:42.550Z,1020.17
2019-02-20T00:10:23.135Z,1020.16
2019-02-20T00:11:03.793Z,1020.14
2019-02-20T00:11:44.405Z,1020.14
2019-02-20T00:12:24.987Z,1020.14
2019-02-20T00:13:05.603Z,1020.14
2019-02-20T00:13:46.215Z,1020.16
2019-02-20T00:14:26.825Z,1020.15
2019-02-20T00:15:07.429Z,1020.11
2019-02-20T00:15:48.045Z,1020.16
2019-02-20T00:16:28.667Z,1020.15
2019-02-20T00:17:09.284Z,1020.12
2019-02-20T00:17:50.009Z,1020.14
2019-02-20T00:18:30.627Z,1020.17
2019-02-20T00:19:11.255Z,1020.13
2019-02-20T00:19:51.867Z,1020.13
2019-02-20T00:20:32.451Z,1020.12
2019-02-20T00:21:13.054Z,1020.14
2019-02-20T00:21:53.657Z,1020.18
2019-02-20T00:22:40.148Z,1020.13
2019-02-20T00:23:14.869Z,1020.14
2019-02-20T00:23:55.461Z,1020.15
2019-02-20T00:24:36.043Z,1020.1
2019-02-20T00:25:16.651Z,1020.15
2019-02-20T00:25:57.336Z,1020.13
2019-02-20T00:26:37.943Z,1020.14
2019-02-20T00:27:18.574Z,1020.16
2019-02-20T00:27:59.175Z,1020.16
2019-02-20T00:28:39.774Z,1020.14
2019-02-20T00:29:20.355Z,1020.13
2019-02-20T00:30:00.957Z,1020.15
2019-02-20T00:30:41.545Z,1020.14
2019-02-20T00:31:22.128Z,1020.15
2019-02-20T00:32:02.732Z,1020.13
2019-02-20T00:32:43.325Z,1020.12
2019-02-20T00:33:23.925Z,1020.12
2019-02-20T00:34:04.509Z,1020.14
2019-02-20T00:34:45.097Z,1020.11
2019-02-20T00:35:25.703Z,1020.12
2019-02-20T00:36:06.317Z,1020.15
2019-02-20T00:36:46.923Z,1020.15
2019-02-20T00:37:27.548Z,1020.14
2019-02-20T00:38:08.172Z,1020.15
2019-02-20T00:38:48.776Z,1020.13
2019-02-20T00:39:29.376Z,1020.12
2019-02-20T00:40:10.025Z,1020.12
2019-02-20T00:40:50.657Z,1020.09
2019-02-20T00:41:31.305Z,1020.11
2019-02-20T00:42:11.923Z,1020.13
2019-02-20T00:42:52.549Z,1020.11
2019-02-20T00:43:33.183Z,1020.13
2019-02-20T00:44:13.783Z,1020.07
2019-02-20T00:44:54.383Z,1020.08
2019-02-20T00:45:35.002Z,1020.12
2019-02-20T00:46:15.599Z,1020.11
2019-02-20T00:46:56.226Z,1020.13
2019-02-20T00:47:36.824Z,1020.13
2019-02-20T00:48:17.415Z,1020.11
2019-02-20T00:48:58.015Z,1020.16
2019-02-20T00:49:38.603Z,1020.15
2019-02-20T00:50:19.251Z,1020.13
2019-02-20T00:50:59.861Z,1020.16
2019-02-20T00:51:40.507Z,1020.15
2019-02-20T00:52:21.109Z,1020.13
2019-02-20T00:53:01.753Z,1020.11
2019-02-20T00:53:42.365Z,1020.1
2019-02-20T00:54:23.038Z,1020.1
2019-02-20T00:55:03.624Z,1020.11
2019-02-20T00:55:44.227Z,1020.12
2019-02-20T00:56:24.854Z,1020.11
2019-02-20T00:57:05.465Z,1020.09
2019-02-20T00:57:46.109Z,1020.06
2019-02-20T00:58:26.751Z,1020.08
2019-02-20T00:59:07.369Z,1020.1
2019-02-20T00:59:47.997Z,1020.08
2019-02-20T01:00:28.581Z,1020.08
2019-02-20T01:01:09.207Z,1020.08
2019-02-20T01:01:49.825Z,1020.08
2019-02-20T01:02:30.451Z,1020.12
2019-02-20T01:03:11.084Z,1020.08
2019-02-20T01:03:51.717Z,1020.12
2019-02-20T01:04:32.365Z,1020.14
2019-02-20T01:05:13.012Z,1020.1
2019-02-20T01:05:53.629Z,1020.07
2019-02-20T01:06:34.249Z,1020.1
2019-02-20T01:07:14.932Z,1020.1
2019-02-20T01:07:55.533Z,1020.09
2019-02-20T01:08:36.141Z,1020.1
2019-02-20T01:09:16.734Z,1020.1
2019-02-20T01:09:57.326Z,1020.08
2019-02-20T01:10:37.925Z,1020.09
2019-02-20T01:11:19.328Z,1020.14
2019-02-20T01:11:59.114Z,1020.09
2019-02-20T01:12:39.744Z,1020.11
2019-02-20T01:13:20.369Z,1020.12
2019-02-20T01:14:00.944Z,1020.11
2019-02-20T01:14:41.569Z,1020.12
2019-02-20T01:15:22.185Z,1020.12
2019-02-20T01:16:02.785Z,1020.15
2019-02-20T01:16:43.418Z,1020.13
2019-02-20T01:17:24.071Z,1020.11
2019-02-20T01:18:04.709Z,1020.1
2019-02-20T01:18:45.322Z,1020.13
2019-02-20T01:19:25.953Z,1020.12
2019-02-20T01:20:06.609Z,1020.11
2019-02-20T01:20:47.262Z,1020.11
2019-02-20T01:21:27.879Z,1020.1
2019-02-20T01:22:08.537Z,1020.12
2019-02-20T01:22:49.185Z,1020.08
2019-02-20T01:23:29.793Z,1020.09
2019-02-20T01:24:10.379Z,1020.11
2019-02-20T01:24:50.997Z,1020.13
2019-02-20T01:25:31.640Z,1020.13
2019-02-20T01:26:12.263Z,1020.12
2019-02-20T01:26:53.526Z,1020.13
2019-02-20T01:27:34.302Z,1020.12
2019-02-20T01:28:14.921Z,1020.13
2019-02-20T01:28:55.533Z,1020.15
2019-02-20T01:29:36.159Z,1020.15
2019-02-20T01:30:16.802Z,1020.11
2019-02-20T01:30:57.403Z,1020.14
2019-02-20T01:31:38.051Z,1020.13
2019-02-20T01:32:18.649Z,1020.11
2019-02-20T01:32:59.283Z,1020.16
2019-02-20T01:33:39.899Z,1020.12
2019-02-20T01:34:20.507Z,1020.13
2019-02-20T01:35:01.102Z,1020.1
2019-02-20T01:35:41.723Z,1020.11
2019-02-20T01:36:22.402Z,1020.11
2019-02-20T01:37:03.019Z,1020.13
2019-02-20T01:37:43.671Z,1020.12
2019-02-20T01:38:24.261Z,1020.11
2019-02-20T01:39:04.865Z,1020.12
2019-02-20T01:39:45.487Z,1020.09
2019-02-20T01:40:26.111Z,1020.12
2019-02-20T01:41:06.738Z,1020.08
2019-02-20T01:41:47.343Z,1020.09
2019-02-20T01:42:27.956Z,1020.07
2019-02-20T01:43:08.557Z,1020.1
2019-02-20T01:43:49.235Z,1020.11
2019-02-20T01:44:29.857Z,1020.12
2019-02-20T01:45:10.457Z,1020.11
2019-02-20T01:45:51.065Z,1020.1
2019-02-20T01:46:31.667Z,1020.13
2019-02-20T01:47:12.368Z,1020.07
2019-02-20T01:47:52.949Z,1020.09
2019-02-20T01:48:33.547Z,1020.14
2019-02-20T01:49:14.159Z,1020.11
2019-02-20T01:49:54.745Z,1020.1
2019-02-20T01:50:35.325Z,1020.07
2019-02-20T01:51:15.919Z,1020.1
2019-02-20T01:51:56.539Z,1020.14
2019-02-20T01:52:37.161Z,1020.13
2019-02-20T01:53:17.754Z,1020.1
2019-02-20T01:53:58.344Z,1020.11
2019-02-20T01:54:38.961Z,1020.08
2019-02-20T01:55:19.576Z,1020.1
2019-02-20T01:56:00.169Z,1020.06
2019-02-20T01:56:40.769Z,1020.06
2019-02-20T01:57:21.359Z,1020.08
2019-02-20T01:58:01.958Z,1020.08
2019-02-20T01:58:42.555Z,1020.05
2019-02-20T01:59:23.150Z,1020.06
2019-02-20T02:00:03.752Z,1020.04
2019-02-20T02:00:44.346Z,1020.05
2019-02-20T02:01:24.966Z,1020.05
2019-02-20T02:02:05.610Z,1020.07
2019-02-20T02:02:46.207Z,1020.06
2019-02-20T02:03:26.795Z,1020.03
2019-02-20T02:04:07.386Z,1020.04
2019-02-20T02:04:48.043Z,1020.04
2019-02-20T02:05:28.681Z,1020
2019-02-20T02:06:09.275Z,1020.06
2019-02-20T02:06:49.879Z,1020.08
2019-02-20T02:07:30.457Z,1020.05
2019-02-20T02:08:11.046Z,1020.07
2019-02-20T02:08:51.647Z,1020.06
2019-02-20T02:09:32.247Z,1020.06
2019-02-20T02:10:12.852Z,1020.04
2019-02-20T02:10:53.451Z,1020
2019-02-20T02:11:34.046Z,1020.07
2019-02-20T02:12:14.621Z,1020.06
2019-02-20T02:12:55.261Z,1020.04
2019-02-20T02:13:35.860Z,1020.06
2019-02-20T02:14:16.449Z,1020.03
2019-02-20T02:14:57.103Z,1020.08
2019-02-20T02:15:37.661Z,1020.05
2019-02-20T02:16:18.257Z,1020.07
2019-02-20T02:16:58.851Z,1020.06
2019-02-20T02:17:39.464Z,1020.05
2019-02-20T02:18:20.052Z,1020.04
2019-02-20T02:19:00.666Z,1020.04
2019-02-20T02:19:41.257Z,1020.04
2019-02-20T02:20:21.840Z,1020.01
2019-02-20T02:21:02.437Z,1020.02
2019-02-20T02:21:43.023Z,1020.03
2019-02-20T02:22:23.627Z,1020
2019-02-20T02:23:04.250Z,1020.06
2019-02-20T02:23:44.864Z,1020
2019-02-20T02:24:25.442Z,1019.98
2019-02-20T02:25:06.098Z,1019.97
2019-02-20T02:25:46.619Z,1019.99
2019-02-20T02:26:27.279Z,1019.97
2019-02-20T02:27:07.833Z,1019.96
2019-02-20T02:27:48.445Z,1019.98
2019-02-20T02:28:29.033Z,1020
2019-02-20T02:29:09.623Z,1020
2019-02-20T02:29:50.218Z,1019.98
2019-02-20T02:30:30.822Z,1019.97
2019-02-20T02:31:11.451Z,1019.95
2019-02-20T02:31:52.027Z,1019.94
2019-02-20T02:32:32.627Z,1019.96
2019-02-20T02:33:13.215Z,1019.93
2019-02-20T02:33:53.803Z,1019.94
2019-02-20T02:34:34.392Z,1019.92
2019-02-20T02:35:14.981Z,1019.93
2019-02-20T02:35:55.572Z,1019.91
2019-02-20T02:36:36.168Z,1019.88
2019-02-20T02:37:16.771Z,1019.93
2019-02-20T02:37:57.350Z,1019.93
2019-02-20T02:38:37.934Z,1019.89
2019-02-20T02:39:18.525Z,1019.92
2019-02-20T02:39:59.126Z,1019.91
2019-02-20T02:40:39.733Z,1019.9
2019-02-20T02:41:20.350Z,1019.9
2019-02-20T02:42:00.940Z,1019.88
2019-02-20T02:42:41.544Z,1019.85
2019-02-20T02:43:22.145Z,1019.88
2019-02-20T02:44:02.787Z,1019.87
2019-02-20T02:44:43.411Z,1019.83
2019-02-20T02:45:24.003Z,1019.86
2019-02-20T02:46:04.585Z,1019.84
2019-02-20T02:46:45.208Z,1019.83
2019-02-20T02:47:25.805Z,1019.86
2019-02-20T02:48:06.425Z,1019.87
2019-02-20T02:48:46.986Z,1019.84
2019-02-20T02:49:27.605Z,1019.83
2019-02-20T02:50:08.185Z,1019.86
2019-02-20T02:50:48.773Z,1019.81
2019-02-20T02:51:29.392Z,1019.83
2019-02-20T02:52:09.992Z,1019.87
2019-02-20T02:52:50.583Z,1019.82
2019-02-20T02:53:31.226Z,1019.82
2019-02-20T02:54:11.777Z,1019.8
2019-02-20T02:54:52.417Z,1019.84
2019-02-20T02:55:33.014Z,1019.83
2019-02-20T02:56:13.642Z,1019.84
2019-02-20T02:56:54.250Z,1019.83
2019-02-20T02:57:34.838Z,1019.83
2019-02-20T02:58:15.424Z,1019.84
2019-02-20T02:58:56.021Z,1019.83
2019-02-20T02:59:36.628Z,1019.79
2019-02-20T03:00:17.228Z,1019.82
2019-02-20T03:00:57.822Z,1019.82
2019-02-20T03:01:38.399Z,1019.85
2019-02-20T03:02:19.004Z,1019.86
2019-02-20T03:02:59.603Z,1019.86
2019-02-20T03:03:40.211Z,1019.84
2019-02-20T03:04:20.828Z,1019.83
2019-02-20T03:05:01.442Z,1019.84
2019-02-20T03:05:42.033Z,1019.8
2019-02-20T03:06:22.662Z,1019.81
2019-02-20T03:07:03.309Z,1019.82
2019-02-20T03:07:43.849Z,1019.81
2019-02-20T03:08:24.450Z,1019.77
2019-02-20T03:09:05.065Z,1019.82
2019-02-20T03:09:45.679Z,1019.8
2019-02-20T03:10:26.340Z,1019.8
2019-02-20T03:11:06.925Z,1019.8
2019-02-20T03:11:47.519Z,1019.78
2019-02-20T03:12:28.113Z,1019.81
2019-02-20T03:13:08.724Z,1019.79
2019-02-20T03:13:49.324Z,1019.79
2019-02-20T03:14:29.923Z,1019.77
2019-02-20T03:15:10.528Z,1019.77
2019-02-20T03:15:51.137Z,1019.74
2019-02-20T03:16:31.808Z,1019.75
2019-02-20T03:17:12.395Z,1019.72
2019-02-20T03:17:52.977Z,1019.73
2019-02-20T03:18:33.569Z,1019.72
2019-02-20T03:19:14.158Z,1019.73
2019-02-20T03:19:54.755Z,1019.71
2019-02-20T03:20:35.388Z,1019.71
2019-02-20T03:21:16.008Z,1019.72
2019-02-20T03:21:56.595Z,1019.72
2019-02-20T03:22:37.195Z,1019.71
2019-02-20T03:23:17.784Z,1019.7
2019-02-20T03:23:58.373Z,1019.73
2019-02-20T03:24:38.958Z,1019.7
2019-02-20T03:25:19.568Z,1019.69
2019-02-20T03:26:00.162Z,1019.7
2019-02-20T03:26:40.768Z,1019.7
2019-02-20T03:27:21.372Z,1019.68
2019-02-20T03:28:01.996Z,1019.69
2019-02-20T03:28:42.581Z,1019.69
2019-02-20T03:29:23.204Z,1019.73
2019-02-20T03:30:03.804Z,1019.72
2019-02-20T03:30:44.410Z,1019.67
2019-02-20T03:31:25.003Z,1019.71
2019-02-20T03:32:05.635Z,1019.72
2019-02-20T03:32:46.225Z,1019.67
2019-02-20T03:33:26.820Z,1019.7
2019-02-20T03:34:08.880Z,1019.73
2019-02-20T03:34:48.020Z,1019.72
2019-02-20T03:35:28.623Z,1019.68
2019-02-20T03:36:09.278Z,1019.69
2019-02-20T03:36:49.856Z,1019.72
2019-02-20T03:37:30.454Z,1019.69
2019-02-20T03:38:11.054Z,1019.66
2019-02-20T03:38:51.647Z,1019.67
2019-02-20T03:39:32.283Z,1019.67
2019-02-20T03:40:12.898Z,1019.7
2019-02-20T03:40:53.578Z,1019.7
2019-02-20T03:41:34.210Z,1019.68
2019-02-20T03:42:14.824Z,1019.7
2019-02-20T03:42:55.434Z,1019.7
2019-02-20T03:43:36.042Z,1019.71
2019-02-20T03:44:16.634Z,1019.73
2019-02-20T03:44:57.238Z,1019.72
2019-02-20T03:45:37.821Z,1019.71
2019-02-20T03:46:18.433Z,1019.72
2019-02-20T03:46:59.049Z,1019.73
2019-02-20T03:47:39.636Z,1019.71
2019-02-20T03:48:20.238Z,1019.71
2019-02-20T03:49:00.824Z,1019.74
2019-02-20T03:49:41.408Z,1019.72
2019-02-20T03:50:22.018Z,1019.72
2019-02-20T03:51:02.598Z,1019.73
2019-02-20T03:51:43.226Z,1019.73
2019-02-20T03:52:23.836Z,1019.73
2019-02-20T03:53:04.451Z,1019.74
2019-02-20T03:53:51.377Z,1019.74
2019-02-20T03:54:25.637Z,1019.77
2019-02-20T03:55:06.225Z,1019.73
2019-02-20T03:55:46.821Z,1019.72
2019-02-20T03:56:27.404Z,1019.72
2019-02-20T03:57:08.031Z,1019.7
2019-02-20T03:57:48.650Z,1019.69
2019-02-20T03:58:29.244Z,1019.69
2019-02-20T03:59:09.838Z,1019.68
2019-02-20T03:59:50.450Z,1019.7
2019-02-20T04:00:31.038Z,1019.73
2019-02-20T04:01:11.651Z,1019.71
2019-02-20T04:01:52.259Z,1019.72
2019-02-20T04:02:32.864Z,1019.72
2019-02-20T04:03:13.460Z,1019.7
2019-02-20T04:03:54.068Z,1019.73
2019-02-20T04:04:34.666Z,1019.71
2019-02-20T04:05:15.263Z,1019.7
2019-02-20T04:05:55.856Z,1019.68
2019-02-20T04:06:36.472Z,1019.68
2019-02-20T04:07:17.078Z,1019.67
2019-02-20T04:07:57.681Z,1019.66
2019-02-20T04:08:38.272Z,1019.68
2019-02-20T04:09:18.872Z,1019.69
2019-02-20T04:09:59.494Z,1019.68
2019-02-20T04:10:40.082Z,1019.69
2019-02-20T04:11:20.698Z,1019.66
2019-02-20T04:12:01.279Z,1019.7
2019-02-20T04:12:41.937Z,1019.66
2019-02-20T04:13:22.535Z,1019.7
2019-02-20T04:14:03.151Z,1019.68
2019-02-20T04:14:43.793Z,1019.69
2019-02-20T04:15:24.368Z,1019.69
2019-02-20T04:16:04.960Z,1019.68
2019-02-20T04:16:45.598Z,1019.68
2019-02-20T04:17:26.186Z,1019.69
2019-02-20T04:18:06.779Z,1019.66
2019-02-20T04:18:47.403Z,1019.65
2019-02-20T04:19:28.010Z,1019.66
2019-02-20T04:20:08.622Z,1019.66
2019-02-20T04:20:49.266Z,1019.64
2019-02-20T04:21:29.873Z,1019.65
2019-02-20T04:22:10.474Z,1019.62
2019-02-20T04:22:51.078Z,1019.66
2019-02-20T04:23:31.671Z,1019.67
2019-02-20T04:24:12.296Z,1019.68
2019-02-20T04:24:52.908Z,1019.68
2019-02-20T04:25:33.523Z,1019.68
2019-02-20T04:26:14.138Z,1019.68
2019-02-20T04:26:54.743Z,1019.68
2019-02-20T04:27:35.354Z,1019.67
2019-02-20T04:28:15.958Z,1019.66
2019-02-20T04:28:56.557Z,1019.7
2019-02-20T04:29:37.162Z,1019.71
2019-02-20T04:30:17.780Z,1019.66
2019-02-20T04:30:58.409Z,1019.69
2019-02-20T04:31:39.040Z,1019.69
2019-02-20T04:32:19.664Z,1019.71
2019-02-20T04:33:00.258Z,1019.74
2019-02-20T04:33:40.854Z,1019.74
2019-02-20T04:34:21.461Z,1019.75
2019-02-20T04:35:02.073Z,1019.75
2019-02-20T04:35:42.678Z,1019.77
2019-02-20T04:36:23.307Z,1019.8
2019-02-20T04:37:03.914Z,1019.76
2019-02-20T04:37:44.508Z,1019.79
2019-02-20T04:38:25.108Z,1019.8
2019-02-20T04:39:05.746Z,1019.8
2019-02-20T04:39:46.326Z,1019.78
2019-02-20T04:40:26.933Z,1019.8
2019-02-20T04:41:07.572Z,1019.79
2019-02-20T04:41:48.188Z,1019.84
2019-02-20T04:42:28.798Z,1019.83
2019-02-20T04:43:09.394Z,1019.83
2019-02-20T04:43:49.987Z,1019.82
2019-02-20T04:44:30.594Z,1019.81
2019-02-20T04:45:11.204Z,1019.83
2019-02-20T04:45:51.804Z,1019.83
2019-02-20T04:46:32.416Z,1019.87
2019-02-20T04:47:13.018Z,1019.84
2019-02-20T04:47:53.628Z,1019.84
2019-02-20T04:48:34.245Z,1019.85
2019-02-20T04:49:14.856Z,1019.84
2019-02-20T04:49:55.528Z,1019.88
2019-02-20T04:50:36.124Z,1019.89
2019-02-20T04:51:16.761Z,1019.85
2019-02-20T04:51:57.436Z,1019.85
2019-02-20T04:52:37.985Z,1019.88
2019-02-20T04:53:18.587Z,1019.87
2019-02-20T04:53:59.200Z,1019.92
2019-02-20T04:54:39.801Z,1019.91
2019-02-20T04:55:20.406Z,1019.88
2019-02-20T04:56:00.995Z,1019.89
2019-02-20T04:56:41.602Z,1019.93
2019-02-20T04:57:22.201Z,1019.9
2019-02-20T04:58:02.826Z,1019.89
2019-02-20T04:58:43.446Z,1019.93
2019-02-20T04:59:24.048Z,1019.89
2019-02-20T05:00:04.674Z,1019.89
2019-02-20T05:00:45.260Z,1019.87
2019-02-20T05:01:25.874Z,1019.91
2019-02-20T05:02:06.486Z,1019.89
2019-02-20T05:02:47.112Z,1019.89
2019-02-20T05:03:27.721Z,1019.87
2019-02-20T05:04:08.333Z,1019.89
2019-02-20T05:04:48.927Z,1019.9
2019-02-20T05:05:29.526Z,1019.93
2019-02-20T05:06:10.116Z,1019.91
2019-02-20T05:06:50.722Z,1019.88
2019-02-20T05:07:31.321Z,1019.88
2019-02-20T05:08:11.943Z,1019.89
2019-02-20T05:08:52.552Z,1019.9
2019-02-20T05:09:33.155Z,1019.89
2019-02-20T05:10:13.761Z,1019.92
2019-02-20T05:10:54.356Z,1019.93
2019-02-20T05:11:34.971Z,1019.91
2019-02-20T05:12:15.581Z,1019.96
2019-02-20T05:12:56.198Z,1019.92
2019-02-20T05:13:36.798Z,1019.93
2019-02-20T05:14:17.389Z,1019.92
2019-02-20T05:14:58.000Z,1019.92
2019-02-20T05:15:38.605Z,1019.94
2019-02-20T05:16:19.209Z,1019.94
2019-02-20T05:16:59.827Z,1019.91
2019-02-20T05:17:40.433Z,1019.91
2019-02-20T05:18:21.038Z,1019.96
2019-02-20T05:19:01.638Z,1019.92
2019-02-20T05:19:42.311Z,1019.94
2019-02-20T05:20:22.851Z,1019.9
2019-02-20T05:21:03.440Z,1019.88
2019-02-20T05:21:44.036Z,1019.91
2019-02-20T05:22:24.631Z,1019.91
2019-02-20T05:23:05.233Z,1019.91
2019-02-20T05:23:45.835Z,1019.92
2019-02-20T05:24:26.461Z,1019.96
2019-02-20T05:25:07.055Z,1019.93
2019-02-20T05:25:47.681Z,1019.91
2019-02-20T05:26:28.279Z,1019.93
2019-02-20T05:27:08.895Z,1019.96
2019-02-20T05:27:49.479Z,1019.91
2019-02-20T05:28:30.074Z,1019.91
2019-02-20T05:29:10.697Z,1019.92
2019-02-20T05:29:51.291Z,1019.94
2019-02-20T05:30:31.911Z,1019.89
2019-02-20T05:31:12.513Z,1019.93
2019-02-20T05:31:53.104Z,1019.91
2019-02-20T05:32:33.704Z,1019.9
2019-02-20T05:33:14.293Z,1019.92
2019-02-20T05:33:54.904Z,1019.9
2019-02-20T05:34:35.511Z,1019.89
2019-02-20T05:35:16.117Z,1019.89
2019-02-20T05:35:56.717Z,1019.9
2019-02-20T05:36:37.328Z,1019.93
2019-02-20T05:37:17.933Z,1019.91
2019-02-20T05:37:58.552Z,1019.94
2019-02-20T05:38:39.154Z,1019.93
2019-02-20T05:39:19.757Z,1019.91
2019-02-20T05:40:00.414Z,1019.94
2019-02-20T05:40:40.983Z,1019.92
2019-02-20T05:41:21.587Z,1019.92
2019-02-20T05:42:02.189Z,1019.89
2019-02-20T05:42:42.778Z,1019.93
2019-02-20T05:43:23.410Z,1019.94
2019-02-20T05:44:04.018Z,1019.92
2019-02-20T05:44:44.615Z,1019.92
2019-02-20T05:45:25.220Z,1019.92
2019-02-20T05:46:05.835Z,1019.92
2019-02-20T05:46:46.429Z,1019.93
2019-02-20T05:47:27.031Z,1019.97
2019-02-20T05:48:07.633Z,1019.92
2019-02-20T05:48:48.230Z,1019.96
2019-02-20T05:49:28.854Z,1019.94
2019-02-20T05:50:09.449Z,1019.95
2019-02-20T05:50:50.057Z,1020
2019-02-20T05:51:30.659Z,1019.93
2019-02-20T05:52:11.281Z,1019.96
2019-02-20T05:52:51.891Z,1019.95
2019-02-20T05:53:32.512Z,1019.93
2019-02-20T05:54:13.121Z,1019.97
2019-02-20T05:54:53.727Z,1019.94
2019-02-20T05:55:34.340Z,1019.96
2019-02-20T05:56:14.948Z,1019.97
2019-02-20T05:56:55.559Z,1019.97
2019-02-20T05:57:36.539Z,1019.96
2019-02-20T05:58:16.771Z,1019.95
2019-02-20T05:58:57.387Z,1019.95
2019-02-20T05:59:37.977Z,1019.97
2019-02-20T06:00:18.582Z,1019.97
2019-02-20T06:00:59.201Z,1019.97
2019-02-20T06:01:39.807Z,1020.02
2019-02-20T06:02:20.430Z,1019.99
2019-02-20T06:03:01.027Z,1020.01
2019-02-20T06:03:41.638Z,1019.99
2019-02-20T06:04:22.233Z,1020.03
2019-02-20T06:05:02.857Z,1020.02
2019-02-20T06:05:43.485Z,1020.04
2019-02-20T06:06:24.110Z,1020.06
2019-02-20T06:07:04.740Z,1020.04
2019-02-20T06:07:45.379Z,1020.07
2019-02-20T06:08:25.997Z,1020.1
2019-02-20T06:09:06.603Z,1020.07
2019-02-20T06:09:47.253Z,1020.05
2019-02-20T06:10:27.864Z,1020.08
2019-02-20T06:11:14.598Z,1020.11
2019-02-20T06:11:49.089Z,1020.06
2019-02-20T06:12:29.697Z,1020.09
2019-02-20T06:13:10.295Z,1020.12
2019-02-20T06:13:50.889Z,1020.11
2019-02-20T06:14:31.485Z,1020.1
2019-02-20T06:15:12.084Z,1020.08
2019-02-20T06:15:52.685Z,1020.11
2019-02-20T06:16:33.289Z,1020.14
2019-02-20T06:17:13.893Z,1020.12
2019-02-20T06:17:54.504Z,1020.14
2019-02-20T06:18:35.113Z,1020.13
2019-02-20T06:19:15.727Z,1020.14
2019-02-20T06:19:56.355Z,1020.16
2019-02-20T06:20:36.971Z,1020.15
2019-02-20T06:21:17.559Z,1020.15
2019-02-20T06:21:58.156Z,1020.16
2019-02-20T06:22:38.753Z,1020.17
2019-02-20T06:23:19.359Z,1020.17
2019-02-20T06:23:59.959Z,1020.16
2019-02-20T06:24:44.028Z,1020.17
2019-02-20T06:25:21.164Z,1020.19
2019-02-20T06:26:01.763Z,1020.21
2019-02-20T06:26:42.420Z,1020.21
2019-02-20T06:27:23.004Z,1020.21
2019-02-20T06:28:03.643Z,1020.23
2019-02-20T06:28:44.270Z,1020.23
2019-02-20T06:29:24.880Z,1020.25
2019-02-20T06:30:05.476Z,1020.25
2019-02-20T06:30:46.087Z,1020.26
2019-02-20T06:31:26.687Z,1020.27
2019-02-20T06:32:07.336Z,1020.27
2019-02-20T06:32:47.940Z,1020.26
2019-02-20T06:33:28.558Z,1020.29
2019-02-20T06:34:09.189Z,1020.31
2019-02-20T06:34:49.807Z,1020.29
2019-02-20T06:35:30.421Z,1020.3
2019-02-20T06:36:11.029Z,1020.29
2019-02-20T06:36:51.637Z,1020.31
2019-02-20T06:37:32.259Z,1020.35
2019-02-20T06:38:12.862Z,1020.35
2019-02-20T06:38:53.467Z,1020.35
2019-02-20T06:39:34.071Z,1020.36
2019-02-20T06:40:14.671Z,1020.43
2019-02-20T06:40:55.283Z,1020.4
2019-02-20T06:41:38.900Z,1020.38
2019-02-20T06:42:16.485Z,1020.42
2019-02-20T06:42:57.067Z,1020.42
2019-02-20T06:43:37.652Z,1020.44
2019-02-20T06:44:18.293Z,1020.41
2019-02-20T06:44:58.929Z,1020.44
2019-02-20T06:45:39.530Z,1020.42
2019-02-20T06:46:20.169Z,1020.45
2019-02-20T06:47:00.777Z,1020.43
2019-02-20T06:47:41.379Z,1020.41
2019-02-20T06:48:21.974Z,1020.45
2019-02-20T06:49:02.579Z,1020.42
2019-02-20T06:49:43.195Z,1020.42
2019-02-20T06:50:23.807Z,1020.46
2019-02-20T06:51:04.399Z,1020.46
2019-02-20T06:51:45.033Z,1020.41
2019-02-20T06:52:25.623Z,1020.44
2019-02-20T06:53:06.227Z,1020.43
2019-02-20T06:53:46.828Z,1020.47
2019-02-20T06:54:27.435Z,1020.46
2019-02-20T06:55:08.065Z,1020.47
2019-02-20T06:55:48.671Z,1020.48
2019-02-20T06:56:29.269Z,1020.47
2019-02-20T06:57:09.907Z,1020.5
2019-02-20T06:57:50.522Z,1020.51
2019-02-20T06:58:31.130Z,1020.48
2019-02-20T06:59:11.775Z,1020.52
2019-02-20T06:59:52.401Z,1020.56
2019-02-20T07:00:33.064Z,1020.54
2019-02-20T07:01:13.687Z,1020.56
2019-02-20T07:01:54.297Z,1020.55
2019-02-20T07:02:35.794Z,1020.62
2019-02-20T07:03:15.519Z,1020.59
2019-02-20T07:03:56.126Z,1020.6
2019-02-20T07:04:36.722Z,1020.64
2019-02-20T07:05:17.313Z,1020.67
2019-02-20T07:05:57.919Z,1020.67
2019-02-20T07:06:38.535Z,1020.68
2019-02-20T07:07:19.132Z,1020.72
2019-02-20T07:07:59.741Z,1020.73
2019-02-20T07:08:40.338Z,1020.73
2019-02-20T07:09:20.941Z,1020.74
2019-02-20T07:10:01.534Z,1020.79
2019-02-20T07:10:42.137Z,1020.81
2019-02-20T07:11:22.783Z,1020.82
2019-02-20T07:12:03.412Z,1020.82
2019-02-20T07:12:43.958Z,1020.8
2019-02-20T07:13:24.575Z,1020.81
2019-02-20T07:14:05.209Z,1020.83
2019-02-20T07:14:45.817Z,1020.84
2019-02-20T07:15:26.420Z,1020.91
2019-02-20T07:16:07.023Z,1020.93
2019-02-20T07:16:47.639Z,1020.95
2019-02-20T07:17:28.243Z,1020.95
2019-02-20T07:18:08.843Z,1020.93
2019-02-20T07:18:49.453Z,1020.96
2019-02-20T07:19:30.058Z,1020.97
2019-02-20T07:20:10.669Z,1020.99
2019-02-20T07:20:51.283Z,1021.01
2019-02-20T07:21:31.891Z,1021.02
2019-02-20T07:22:12.481Z,1020.98
2019-02-20T07:22:53.120Z,1021.04
2019-02-20T07:23:33.711Z,1021.03
2019-02-20T07:24:14.315Z,1021.04
2019-02-20T07:25:02.767Z,1021.04
2019-02-20T07:25:35.523Z,1021.06
2019-02-20T07:26:16.173Z,1021.08
2019-02-20T07:26:56.770Z,1021.11
2019-02-20T07:27:37.377Z,1021.08
2019-02-20T07:28:17.971Z,1021.11
2019-02-20T07:28:58.585Z,1021.13
2019-02-20T07:29:39.199Z,1021.16
2019-02-20T07:30:19.806Z,1021.15
2019-02-20T07:31:00.405Z,1021.13
2019-02-20T07:31:40.988Z,1021.13
2019-02-20T07:32:21.577Z,1021.13
2019-02-20T07:33:02.217Z,1021.14
2019-02-20T07:33:42.821Z,1021.17
2019-02-20T07:34:23.438Z,1021.2
2019-02-20T07:35:04.051Z,1021.2
2019-02-20T07:35:44.651Z,1021.24
2019-02-20T07:36:25.251Z,1021.23
2019-02-20T07:37:05.853Z,1021.2
2019-02-20T07:37:46.463Z,1021.25
2019-02-20T07:38:27.050Z,1021.23
2019-02-20T07:39:07.651Z,1021.22
2019-02-20T07:39:48.265Z,1021.24
2019-02-20T07:40:28.873Z,1021.26
2019-02-20T07:41:09.471Z,1021.26
2019-02-20T07:41:50.103Z,1021.3
2019-02-20T07:42:30.673Z,1021.32
2019-02-20T07:43:11.271Z,1021.26
2019-02-20T07:43:51.875Z,1021.27
2019-02-20T07:44:32.482Z,1021.35
2019-02-20T07:45:13.081Z,1021.28
2019-02-20T07:45:53.683Z,1021.33
2019-02-20T07:46:34.422Z,1021.33
2019-02-20T07:47:15.000Z,1021.35
2019-02-20T07:47:55.601Z,1021.35
2019-02-20T07:48:36.261Z,1021.37
2019-02-20T07:49:16.867Z,1021.38
2019-02-20T07:49:57.479Z,1021.34
2019-02-20T07:50:38.089Z,1021.36
2019-02-20T07:51:18.753Z,1021.37
2019-02-20T07:51:59.364Z,1021.4
2019-02-20T07:52:40.031Z,1021.37
2019-02-20T07:53:20.643Z,1021.4
2019-02-20T07:54:01.253Z,1021.41
2019-02-20T07:54:41.855Z,1021.48
2019-02-20T07:55:22.469Z,1021.45
2019-02-20T07:56:03.081Z,1021.45
2019-02-20T07:56:43.705Z,1021.48
2019-02-20T07:57:24.319Z,1021.49
2019-02-20T07:58:04.929Z,1021.5
2019-02-20T07:58:45.531Z,1021.49
2019-02-20T07:59:26.137Z,1021.52
2019-02-20T08:00:06.737Z,1021.49
2019-02-20T08:00:47.327Z,1021.51
2019-02-20T08:01:27.975Z,1021.53
2019-02-20T08:02:08.587Z,1021.55
2019-02-20T08:02:49.191Z,1021.55
2019-02-20T08:03:29.902Z,1021.56
2019-02-20T08:04:10.407Z,1021.56
2019-02-20T08:04:51.007Z,1021.56
2019-02-20T08:05:31.609Z,1021.57
2019-02-20T08:06:12.204Z,1021.54
2019-02-20T08:06:52.807Z,1021.57
2019-02-20T08:07:33.413Z,1021.57
2019-02-20T08:08:14.017Z,1021.57
2019-02-20T08:08:54.627Z,1021.57
2019-02-20T08:09:35.227Z,1021.57
2019-02-20T08:10:15.847Z,1021.58
2019-02-20T08:10:56.417Z,1021.54
2019-02-20T08:11:36.997Z,1021.6
2019-02-20T08:12:17.595Z,1021.55
2019-02-20T08:12:58.189Z,1021.52